sensor_id;sensor_type;location;lat;lon;timestamp;P1;durP1;ratioP1;P2;durP2;ratioP2
16593;SDS011;8410;52.532;13.336;2023-09-19T00:00:20;3.00;;;2.50;;
16593;SDS011;8410;52.532;13.336;2023-09-19T00:02:52;4.60;;;2.17;;
16593;SDS011;8410;52.532;13.336;2023-09-19T00:05:20;3.78;;;1.70;;
16593;SDS011;8410;52.532;13.336;2023-09-19T00:07:50;5.65;;;2.17;;
16593;SDS011;8410;52.532;13.336;2023-09-19T00:10:20;2.38;;;1.67;;
16593;SDS011;8410;52.532;13.336;2023-09-19T00:12:51;3.08;;;1.90;;
16593;SDS011;8410;52.532;13.336;2023-09-19T00:15:19;2.80;;;2.00;;
16593;SDS011;8410;52.532;13.336;2023-09-19T00:17:46;6.55;;;1.92;;
16593;SDS011;8410;52.532;13.336;2023-09-19T00:20:14;3.25;;;2.03;;
16593;SDS011;8410;52.532;13.336;2023-09-19T00:22:44;2.88;;;2.03;;
16593;SDS011;8410;52.532;13.336;2023-09-19T00:25:11;3.45;;;2.28;;
16593;SDS011;8410;52.532;13.336;2023-09-19T00:27:41;5.85;;;2.92;;
16593;SDS011;8410;52.532;13.336;2023-09-19T00:30:12;5.53;;;2.05;;
16593;SDS011;8410;52.532;13.336;2023-09-19T00:32:46;4.72;;;2.30;;
16593;SDS011;8410;52.532;13.336;2023-09-19T00:35:15;3.10;;;1.90;;
16593;SDS011;8410;52.532;13.336;2023-09-19T00:37:42;2.60;;;2.00;;
16593;SDS011;8410;52.532;13.336;2023-09-19T00:40:10;4.55;;;2.10;;
16593;SDS011;8410;52.532;13.336;2023-09-19T00:42:40;5.57;;;2.20;;
16593;SDS011;8410;52.532;13.336;2023-09-19T00:45:09;4.53;;;2.03;;
16593;SDS011;8410;52.532;13.336;2023-09-19T00:47:39;3.47;;;2.13;;
16593;SDS011;8410;52.532;13.336;2023-09-19T00:50:08;4.07;;;2.33;;
16593;SDS011;8410;52.532;13.336;2023-09-19T00:52:37;5.75;;;2.30;;
16593;SDS011;8410;52.532;13.336;2023-09-19T00:55:06;4.53;;;2.33;;
16593;SDS011;8410;52.532;13.336;2023-09-19T00:57:35;3.03;;;2.00;;
16593;SDS011;8410;52.532;13.336;2023-09-19T01:00:05;4.38;;;2.10;;
16593;SDS011;8410;52.532;13.336;2023-09-19T01:02:37;3.13;;;2.07;;
16593;SDS011;8410;52.532;13.336;2023-09-19T01:05:06;4.93;;;1.98;;
16593;SDS011;8410;52.532;13.336;2023-09-19T01:07:34;5.05;;;2.33;;
16593;SDS011;8410;52.532;13.336;2023-09-19T01:10:02;4.40;;;2.10;;
16593;SDS011;8410;52.532;13.336;2023-09-19T01:12:33;4.00;;;2.05;;
16593;SDS011;8410;52.532;13.336;2023-09-19T01:15:11;3.63;;;1.90;;
16593;SDS011;8410;52.532;13.336;2023-09-19T01:17:49;4.25;;;2.20;;
16593;SDS011;8410;52.532;13.336;2023-09-19T01:20:27;4.65;;;1.92;;
16593;SDS011;8410;52.532;13.336;2023-09-19T01:23:08;6.20;;;1.98;;
16593;SDS011;8410;52.532;13.336;2023-09-19T01:28:39;2.90;;;1.83;;
16593;SDS011;8410;52.532;13.336;2023-09-19T01:31:15;6.03;;;1.90;;
16593;SDS011;8410;52.532;13.336;2023-09-19T01:33:55;2.42;;;1.88;;
16593;SDS011;8410;52.532;13.336;2023-09-19T01:36:28;3.00;;;1.98;;
16593;SDS011;8410;52.532;13.336;2023-09-19T01:38:57;2.90;;;2.00;;
16593;SDS011;8410;52.532;13.336;2023-09-19T01:41:49;4.53;;;2.00;;
16593;SDS011;8410;52.532;13.336;2023-09-19T01:44:24;2.95;;;1.90;;
16593;SDS011;8410;52.532;13.336;2023-09-19T01:47:11;3.43;;;2.20;;
16593;SDS011;8410;52.532;13.336;2023-09-19T01:49:48;4.18;;;2.20;;
16593;SDS011;8410;52.532;13.336;2023-09-19T01:52:22;3.30;;;1.92;;
16593;SDS011;8410;52.532;13.336;2023-09-19T01:54:56;3.30;;;2.03;;
16593;SDS011;8410;52.532;13.336;2023-09-19T01:57:34;1.77;;;1.67;;
16593;SDS011;8410;52.532;13.336;2023-09-19T02:00:08;4.78;;;2.20;;
16593;SDS011;8410;52.532;13.336;2023-09-19T02:02:42;2.78;;;1.90;;
16593;SDS011;8410;52.532;13.336;2023-09-19T02:05:12;3.50;;;1.75;;
16593;SDS011;8410;52.532;13.336;2023-09-19T02:07:39;4.95;;;1.75;;
16593;SDS011;8410;52.532;13.336;2023-09-19T02:10:07;4.15;;;2.10;;
16593;SDS011;8410;52.532;13.336;2023-09-19T02:12:38;3.55;;;2.00;;
16593;SDS011;8410;52.532;13.336;2023-09-19T02:15:06;2.83;;;2.00;;
16593;SDS011;8410;52.532;13.336;2023-09-19T02:17:34;2.45;;;2.00;;
16593;SDS011;8410;52.532;13.336;2023-09-19T02:20:03;4.75;;;2.03;;
16593;SDS011;8410;52.532;13.336;2023-09-19T02:22:37;3.77;;;2.37;;
16593;SDS011;8410;52.532;13.336;2023-09-19T02:25:05;7.13;;;2.40;;
16593;SDS011;8410;52.532;13.336;2023-09-19T02:27:34;5.53;;;2.03;;
16593;SDS011;8410;52.532;13.336;2023-09-19T02:30:02;2.95;;;1.90;;
16593;SDS011;8410;52.532;13.336;2023-09-19T02:32:30;3.13;;;1.85;;
16593;SDS011;8410;52.532;13.336;2023-09-19T02:35:03;4.33;;;2.47;;
16593;SDS011;8410;52.532;13.336;2023-09-19T02:37:32;2.87;;;2.20;;
16593;SDS011;8410;52.532;13.336;2023-09-19T02:40:01;3.60;;;2.28;;
16593;SDS011;8410;52.532;13.336;2023-09-19T02:42:28;2.33;;;1.80;;
16593;SDS011;8410;52.532;13.336;2023-09-19T02:44:56;2.25;;;1.80;;
16593;SDS011;8410;52.532;13.336;2023-09-19T02:47:24;3.23;;;1.90;;
16593;SDS011;8410;52.532;13.336;2023-09-19T02:49:53;4.15;;;2.50;;
16593;SDS011;8410;52.532;13.336;2023-09-19T02:52:22;4.77;;;2.10;;
16593;SDS011;8410;52.532;13.336;2023-09-19T02:54:51;4.17;;;2.00;;
16593;SDS011;8410;52.532;13.336;2023-09-19T02:57:18;3.05;;;2.15;;
16593;SDS011;8410;52.532;13.336;2023-09-19T02:59:46;4.37;;;2.10;;
16593;SDS011;8410;52.532;13.336;2023-09-19T03:02:13;4.72;;;2.13;;
16593;SDS011;8410;52.532;13.336;2023-09-19T03:04:42;4.05;;;2.35;;
16593;SDS011;8410;52.532;13.336;2023-09-19T03:07:11;4.13;;;2.10;;
16593;SDS011;8410;52.532;13.336;2023-09-19T03:09:41;2.80;;;1.85;;
16593;SDS011;8410;52.532;13.336;2023-09-19T03:12:08;2.95;;;1.90;;
16593;SDS011;8410;52.532;13.336;2023-09-19T03:14:36;3.72;;;1.80;;
16593;SDS011;8410;52.532;13.336;2023-09-19T03:17:03;2.80;;;1.92;;
16593;SDS011;8410;52.532;13.336;2023-09-19T03:19:31;4.68;;;2.13;;
16593;SDS011;8410;52.532;13.336;2023-09-19T03:21:59;2.00;;;1.60;;
16593;SDS011;8410;52.532;13.336;2023-09-19T03:24:29;1.48;;;1.33;;
16593;SDS011;8410;52.532;13.336;2023-09-19T03:26:59;2.75;;;1.42;;
16593;SDS011;8410;52.532;13.336;2023-09-19T03:29:26;2.23;;;1.50;;
16593;SDS011;8410;52.532;13.336;2023-09-19T03:31:54;2.85;;;1.40;;
16593;SDS011;8410;52.532;13.336;2023-09-19T03:34:21;3.30;;;1.45;;
16593;SDS011;8410;52.532;13.336;2023-09-19T03:36:49;2.50;;;1.57;;
16593;SDS011;8410;52.532;13.336;2023-09-19T03:39:16;1.80;;;1.30;;
16593;SDS011;8410;52.532;13.336;2023-09-19T03:41:44;1.57;;;1.43;;
16593;SDS011;8410;52.532;13.336;2023-09-19T03:44:12;2.42;;;1.40;;
16593;SDS011;8410;52.532;13.336;2023-09-19T03:46:41;1.90;;;1.30;;
16593;SDS011;8410;52.532;13.336;2023-09-19T03:49:08;3.40;;;1.60;;
16593;SDS011;8410;52.532;13.336;2023-09-19T03:51:36;1.75;;;1.30;;
16593;SDS011;8410;52.532;13.336;2023-09-19T03:54:05;2.30;;;1.10;;
16593;SDS011;8410;52.532;13.336;2023-09-19T03:56:34;1.85;;;1.23;;
16593;SDS011;8410;52.532;13.336;2023-09-19T03:59:01;2.67;;;1.63;;
16593;SDS011;8410;52.532;13.336;2023-09-19T04:01:31;1.60;;;1.50;;
16593;SDS011;8410;52.532;13.336;2023-09-19T04:03:59;2.75;;;1.60;;
16593;SDS011;8410;52.532;13.336;2023-09-19T04:06:34;1.55;;;1.15;;
16593;SDS011;8410;52.532;13.336;2023-09-19T04:09:02;2.33;;;1.40;;
16593;SDS011;8410;52.532;13.336;2023-09-19T04:11:30;1.90;;;1.30;;
16593;SDS011;8410;52.532;13.336;2023-09-19T04:13:59;1.30;;;1.20;;
16593;SDS011;8410;52.532;13.336;2023-09-19T04:16:31;2.42;;;1.25;;
16593;SDS011;8410;52.532;13.336;2023-09-19T04:18:58;2.43;;;1.30;;
16593;SDS011;8410;52.532;13.336;2023-09-19T04:21:26;2.40;;;1.48;;
16593;SDS011;8410;52.532;13.336;2023-09-19T04:23:54;2.28;;;1.27;;
16593;SDS011;8410;52.532;13.336;2023-09-19T04:26:22;2.60;;;1.40;;
16593;SDS011;8410;52.532;13.336;2023-09-19T04:28:49;3.27;;;1.60;;
16593;SDS011;8410;52.532;13.336;2023-09-19T04:31:17;2.07;;;1.40;;
16593;SDS011;8410;52.532;13.336;2023-09-19T04:33:47;1.70;;;1.50;;
16593;SDS011;8410;52.532;13.336;2023-09-19T04:36:15;3.33;;;1.80;;
16593;SDS011;8410;52.532;13.336;2023-09-19T04:39:01;3.23;;;1.73;;
16593;SDS011;8410;52.532;13.336;2023-09-19T04:41:31;2.07;;;1.33;;
16593;SDS011;8410;52.532;13.336;2023-09-19T04:43:58;3.23;;;1.60;;
16593;SDS011;8410;52.532;13.336;2023-09-19T04:46:26;2.90;;;1.57;;
16593;SDS011;8410;52.532;13.336;2023-09-19T04:48:55;2.40;;;1.83;;
16593;SDS011;8410;52.532;13.336;2023-09-19T04:51:22;2.90;;;2.17;;
16593;SDS011;8410;52.532;13.336;2023-09-19T04:53:50;1.77;;;1.60;;
16593;SDS011;8410;52.532;13.336;2023-09-19T04:56:18;3.00;;;1.83;;
16593;SDS011;8410;52.532;13.336;2023-09-19T04:58:47;1.67;;;1.50;;
16593;SDS011;8410;52.532;13.336;2023-09-19T05:01:14;4.30;;;1.67;;
16593;SDS011;8410;52.532;13.336;2023-09-19T05:03:42;2.67;;;1.60;;
16593;SDS011;8410;52.532;13.336;2023-09-19T05:06:13;4.30;;;1.60;;
16593;SDS011;8410;52.532;13.336;2023-09-19T05:08:41;1.77;;;1.50;;
16593;SDS011;8410;52.532;13.336;2023-09-19T05:11:09;2.03;;;1.47;;
16593;SDS011;8410;52.532;13.336;2023-09-19T05:13:36;3.37;;;2.03;;
16593;SDS011;8410;52.532;13.336;2023-09-19T05:16:04;1.60;;;1.40;;
16593;SDS011;8410;52.532;13.336;2023-09-19T05:18:32;2.93;;;1.53;;
16593;SDS011;8410;52.532;13.336;2023-09-19T05:21:01;2.33;;;1.73;;
16593;SDS011;8410;52.532;13.336;2023-09-19T05:23:30;4.57;;;1.70;;
16593;SDS011;8410;52.532;13.336;2023-09-19T05:25:58;4.70;;;4.22;;
16593;SDS011;8410;52.532;13.336;2023-09-19T05:28:26;4.50;;;3.83;;
16593;SDS011;8410;52.532;13.336;2023-09-19T05:30:54;2.07;;;1.77;;
16593;SDS011;8410;52.532;13.336;2023-09-19T05:33:21;1.73;;;1.40;;
16593;SDS011;8410;52.532;13.336;2023-09-19T05:35:49;2.13;;;1.92;;
16593;SDS011;8410;52.532;13.336;2023-09-19T05:38:16;3.13;;;1.77;;
16593;SDS011;8410;52.532;13.336;2023-09-19T05:40:47;2.57;;;1.80;;
16593;SDS011;8410;52.532;13.336;2023-09-19T05:43:15;2.27;;;1.80;;
16593;SDS011;8410;52.532;13.336;2023-09-19T05:45:43;3.50;;;1.60;;
16593;SDS011;8410;52.532;13.336;2023-09-19T05:48:12;2.53;;;1.70;;
16593;SDS011;8410;52.532;13.336;2023-09-19T05:50:42;1.83;;;1.70;;
16593;SDS011;8410;52.532;13.336;2023-09-19T05:53:13;4.53;;;2.30;;
16593;SDS011;8410;52.532;13.336;2023-09-19T05:55:41;10.10;;;2.50;;
16593;SDS011;8410;52.532;13.336;2023-09-19T05:58:10;5.00;;;2.50;;
16593;SDS011;8410;52.532;13.336;2023-09-19T06:00:40;4.17;;;2.20;;
16593;SDS011;8410;52.532;13.336;2023-09-19T06:03:10;3.67;;;2.10;;
16593;SDS011;8410;52.532;13.336;2023-09-19T06:05:40;3.60;;;1.93;;
16593;SDS011;8410;52.532;13.336;2023-09-19T06:08:08;4.82;;;2.15;;
16593;SDS011;8410;52.532;13.336;2023-09-19T06:10:35;3.75;;;2.85;;
16593;SDS011;8410;52.532;13.336;2023-09-19T06:13:03;4.95;;;2.33;;
16593;SDS011;8410;52.532;13.336;2023-09-19T06:15:33;4.45;;;1.98;;
16593;SDS011;8410;52.532;13.336;2023-09-19T06:18:02;4.25;;;1.90;;
16593;SDS011;8410;52.532;13.336;2023-09-19T06:20:32;2.97;;;1.88;;
16593;SDS011;8410;52.532;13.336;2023-09-19T06:22:59;3.03;;;1.55;;
16593;SDS011;8410;52.532;13.336;2023-09-19T06:25:28;4.13;;;1.80;;
16593;SDS011;8410;52.532;13.336;2023-09-19T06:27:56;4.70;;;1.70;;
16593;SDS011;8410;52.532;13.336;2023-09-19T06:30:24;3.20;;;1.90;;
16593;SDS011;8410;52.532;13.336;2023-09-19T06:32:56;5.03;;;1.83;;
16593;SDS011;8410;52.532;13.336;2023-09-19T06:35:24;3.00;;;2.00;;
16593;SDS011;8410;52.532;13.336;2023-09-19T06:37:53;1.85;;;1.60;;
16593;SDS011;8410;52.532;13.336;2023-09-19T06:40:20;2.17;;;1.65;;
16593;SDS011;8410;52.532;13.336;2023-09-19T06:42:50;2.25;;;1.52;;
16593;SDS011;8410;52.532;13.336;2023-09-19T06:45:19;2.55;;;1.80;;
16593;SDS011;8410;52.532;13.336;2023-09-19T06:47:49;3.80;;;1.90;;
16593;SDS011;8410;52.532;13.336;2023-09-19T06:50:20;11.13;;;2.28;;
16593;SDS011;8410;52.532;13.336;2023-09-19T06:52:49;2.78;;;1.63;;
16593;SDS011;8410;52.532;13.336;2023-09-19T06:55:18;3.95;;;1.95;;
16593;SDS011;8410;52.532;13.336;2023-09-19T06:57:47;2.03;;;1.83;;
16593;SDS011;8410;52.532;13.336;2023-09-19T07:00:14;7.05;;;4.93;;
16593;SDS011;8410;52.532;13.336;2023-09-19T07:02:45;13.25;;;7.82;;
16593;SDS011;8410;52.532;13.336;2023-09-19T07:05:12;48.97;;;32.38;;
16593;SDS011;8410;52.532;13.336;2023-09-19T07:07:41;20.98;;;15.35;;
16593;SDS011;8410;52.532;13.336;2023-09-19T07:10:11;8.93;;;5.85;;
16593;SDS011;8410;52.532;13.336;2023-09-19T07:12:39;16.45;;;9.10;;
16593;SDS011;8410;52.532;13.336;2023-09-19T07:15:08;22.08;;;15.10;;
16593;SDS011;8410;52.532;13.336;2023-09-19T07:17:36;13.77;;;6.05;;
16593;SDS011;8410;52.532;13.336;2023-09-19T07:20:04;26.63;;;17.70;;
16593;SDS011;8410;52.532;13.336;2023-09-19T07:22:34;18.30;;;11.25;;
16593;SDS011;8410;52.532;13.336;2023-09-19T07:25:04;15.50;;;11.73;;
16593;SDS011;8410;52.532;13.336;2023-09-19T07:27:32;15.63;;;10.93;;
16593;SDS011;8410;52.532;13.336;2023-09-19T07:29:59;10.38;;;6.75;;
16593;SDS011;8410;52.532;13.336;2023-09-19T07:32:27;10.93;;;6.72;;
16593;SDS011;8410;52.532;13.336;2023-09-19T07:34:55;14.10;;;9.00;;
16593;SDS011;8410;52.532;13.336;2023-09-19T07:37:22;11.82;;;7.28;;
16593;SDS011;8410;52.532;13.336;2023-09-19T07:39:52;8.70;;;5.10;;
16593;SDS011;8410;52.532;13.336;2023-09-19T07:42:21;4.00;;;2.67;;
16593;SDS011;8410;52.532;13.336;2023-09-19T07:44:48;8.73;;;5.38;;
16593;SDS011;8410;52.532;13.336;2023-09-19T07:47:17;6.15;;;3.70;;
16593;SDS011;8410;52.532;13.336;2023-09-19T07:49:46;7.10;;;2.70;;
16593;SDS011;8410;52.532;13.336;2023-09-19T07:52:14;7.75;;;5.10;;
16593;SDS011;8410;52.532;13.336;2023-09-19T07:54:41;8.38;;;4.75;;
16593;SDS011;8410;52.532;13.336;2023-09-19T07:57:10;8.68;;;4.10;;
16593;SDS011;8410;52.532;13.336;2023-09-19T07:59:39;6.55;;;3.75;;
16593;SDS011;8410;52.532;13.336;2023-09-19T08:02:08;2.67;;;1.85;;
16593;SDS011;8410;52.532;13.336;2023-09-19T08:04:42;4.28;;;2.00;;
16593;SDS011;8410;52.532;13.336;2023-09-19T08:07:10;4.13;;;2.13;;
16593;SDS011;8410;52.532;13.336;2023-09-19T08:09:37;3.28;;;1.95;;
16593;SDS011;8410;52.532;13.336;2023-09-19T08:12:05;3.67;;;1.90;;
16593;SDS011;8410;52.532;13.336;2023-09-19T08:14:34;3.65;;;2.38;;
16593;SDS011;8410;52.532;13.336;2023-09-19T08:17:03;4.93;;;2.03;;
16593;SDS011;8410;52.532;13.336;2023-09-19T08:19:32;6.32;;;2.22;;
16593;SDS011;8410;52.532;13.336;2023-09-19T08:21:59;6.20;;;2.63;;
16593;SDS011;8410;52.532;13.336;2023-09-19T08:24:29;5.93;;;2.10;;
16593;SDS011;8410;52.532;13.336;2023-09-19T08:26:57;6.22;;;2.20;;
16593;SDS011;8410;52.532;13.336;2023-09-19T08:29:25;3.78;;;2.42;;
16593;SDS011;8410;52.532;13.336;2023-09-19T08:31:54;3.40;;;2.17;;
16593;SDS011;8410;52.532;13.336;2023-09-19T08:34:23;3.47;;;2.50;;
16593;SDS011;8410;52.532;13.336;2023-09-19T08:36:52;2.85;;;2.35;;
16593;SDS011;8410;52.532;13.336;2023-09-19T08:39:22;5.05;;;2.10;;
16593;SDS011;8410;52.532;13.336;2023-09-19T08:41:56;5.72;;;2.65;;
16593;SDS011;8410;52.532;13.336;2023-09-19T08:44:24;7.50;;;2.70;;
16593;SDS011;8410;52.532;13.336;2023-09-19T08:46:54;5.95;;;2.95;;
16593;SDS011;8410;52.532;13.336;2023-09-19T08:49:29;3.03;;;1.90;;
16593;SDS011;8410;52.532;13.336;2023-09-19T08:52:04;2.63;;;2.42;;
16593;SDS011;8410;52.532;13.336;2023-09-19T08:54:37;5.90;;;2.38;;
16593;SDS011;8410;52.532;13.336;2023-09-19T08:57:07;4.45;;;2.05;;
16593;SDS011;8410;52.532;13.336;2023-09-19T08:59:37;3.30;;;1.92;;
16593;SDS011;8410;52.532;13.336;2023-09-19T09:02:08;3.33;;;2.10;;
16593;SDS011;8410;52.532;13.336;2023-09-19T09:04:40;5.80;;;2.53;;
16593;SDS011;8410;52.532;13.336;2023-09-19T09:07:10;3.72;;;2.30;;
16593;SDS011;8410;52.532;13.336;2023-09-19T09:09:38;3.63;;;2.03;;
16593;SDS011;8410;52.532;13.336;2023-09-19T09:12:08;7.65;;;2.58;;
16593;SDS011;8410;52.532;13.336;2023-09-19T09:14:39;3.47;;;2.30;;
16593;SDS011;8410;52.532;13.336;2023-09-19T09:17:07;7.07;;;2.58;;
16593;SDS011;8410;52.532;13.336;2023-09-19T09:19:35;6.53;;;2.00;;
16593;SDS011;8410;52.532;13.336;2023-09-19T09:22:08;7.70;;;2.60;;
16593;SDS011;8410;52.532;13.336;2023-09-19T09:24:37;5.53;;;2.30;;
16593;SDS011;8410;52.532;13.336;2023-09-19T09:27:20;4.53;;;2.00;;
16593;SDS011;8410;52.532;13.336;2023-09-19T09:29:50;3.78;;;2.13;;
16593;SDS011;8410;52.532;13.336;2023-09-19T09:32:22;5.70;;;2.50;;
16593;SDS011;8410;52.532;13.336;2023-09-19T09:34:52;8.10;;;2.40;;
16593;SDS011;8410;52.532;13.336;2023-09-19T09:37:24;6.40;;;2.53;;
16593;SDS011;8410;52.532;13.336;2023-09-19T09:39:53;4.32;;;2.50;;
16593;SDS011;8410;52.532;13.336;2023-09-19T09:42:28;8.40;;;2.72;;
16593;SDS011;8410;52.532;13.336;2023-09-19T09:47:46;6.38;;;2.42;;
16593;SDS011;8410;52.532;13.336;2023-09-19T09:50:24;4.68;;;2.60;;
16593;SDS011;8410;52.532;13.336;2023-09-19T09:52:57;6.72;;;2.90;;
16593;SDS011;8410;52.532;13.336;2023-09-19T09:55:56;5.78;;;2.88;;
16593;SDS011;8410;52.532;13.336;2023-09-19T09:58:25;6.43;;;2.38;;
16593;SDS011;8410;52.532;13.336;2023-09-19T10:00:56;5.05;;;2.70;;
16593;SDS011;8410;52.532;13.336;2023-09-19T10:03:31;6.60;;;2.42;;
16593;SDS011;8410;52.532;13.336;2023-09-19T10:06:00;4.93;;;2.47;;
16593;SDS011;8410;52.532;13.336;2023-09-19T10:08:36;6.05;;;2.70;;
16593;SDS011;8410;52.532;13.336;2023-09-19T10:11:15;7.70;;;2.67;;
16593;SDS011;8410;52.532;13.336;2023-09-19T10:13:42;7.25;;;2.40;;
16593;SDS011;8410;52.532;13.336;2023-09-19T10:16:13;4.40;;;2.78;;
16593;SDS011;8410;52.532;13.336;2023-09-19T10:18:45;3.78;;;2.10;;
16593;SDS011;8410;52.532;13.336;2023-09-19T10:21:18;4.90;;;2.40;;
16593;SDS011;8410;52.532;13.336;2023-09-19T10:23:49;5.18;;;2.90;;
16593;SDS011;8410;52.532;13.336;2023-09-19T10:26:22;4.88;;;3.13;;
16593;SDS011;8410;52.532;13.336;2023-09-19T10:28:51;6.32;;;3.20;;
16593;SDS011;8410;52.532;13.336;2023-09-19T10:31:21;5.07;;;2.40;;
16593;SDS011;8410;52.532;13.336;2023-09-19T10:33:52;6.10;;;2.80;;
16593;SDS011;8410;52.532;13.336;2023-09-19T10:36:22;5.53;;;2.75;;
16593;SDS011;8410;52.532;13.336;2023-09-19T10:38:54;6.65;;;2.97;;
16593;SDS011;8410;52.532;13.336;2023-09-19T10:41:24;4.03;;;2.60;;
16593;SDS011;8410;52.532;13.336;2023-09-19T10:43:52;8.00;;;3.70;;
16593;SDS011;8410;52.532;13.336;2023-09-19T10:46:21;7.63;;;2.67;;
16593;SDS011;8410;52.532;13.336;2023-09-19T10:48:48;4.65;;;2.47;;
16593;SDS011;8410;52.532;13.336;2023-09-19T10:51:21;6.50;;;2.60;;
16593;SDS011;8410;52.532;13.336;2023-09-19T10:53:57;7.65;;;2.80;;
16593;SDS011;8410;52.532;13.336;2023-09-19T10:56:32;5.22;;;2.50;;
16593;SDS011;8410;52.532;13.336;2023-09-19T10:59:05;7.40;;;2.33;;
16593;SDS011;8410;52.532;13.336;2023-09-19T11:01:43;10.68;;;3.33;;
16593;SDS011;8410;52.532;13.336;2023-09-19T11:04:20;6.50;;;2.72;;
16593;SDS011;8410;52.532;13.336;2023-09-19T11:06:59;4.55;;;2.83;;
16593;SDS011;8410;52.532;13.336;2023-09-19T11:09:49;5.13;;;2.55;;
16593;SDS011;8410;52.532;13.336;2023-09-19T11:21:40;6.63;;;2.67;;
16593;SDS011;8410;52.532;13.336;2023-09-19T11:24:30;4.07;;;2.25;;
16593;SDS011;8410;52.532;13.336;2023-09-19T11:27:12;6.78;;;2.42;;
16593;SDS011;8410;52.532;13.336;2023-09-19T11:29:43;8.45;;;2.40;;
16593;SDS011;8410;52.532;13.336;2023-09-19T11:32:11;6.80;;;2.58;;
16593;SDS011;8410;52.532;13.336;2023-09-19T11:34:41;4.53;;;2.05;;
16593;SDS011;8410;52.532;13.336;2023-09-19T11:40:29;8.73;;;2.17;;
16593;SDS011;8410;52.532;13.336;2023-09-19T11:42:58;4.68;;;2.22;;
16593;SDS011;8410;52.532;13.336;2023-09-19T11:48:32;5.18;;;2.30;;
16593;SDS011;8410;52.532;13.336;2023-09-19T11:51:01;3.92;;;1.83;;
16593;SDS011;8410;52.532;13.336;2023-09-19T11:53:33;5.07;;;2.30;;
16593;SDS011;8410;52.532;13.336;2023-09-19T11:56:05;3.20;;;2.10;;
16593;SDS011;8410;52.532;13.336;2023-09-19T11:58:38;4.07;;;2.00;;
16593;SDS011;8410;52.532;13.336;2023-09-19T12:01:08;7.75;;;3.40;;
16593;SDS011;8410;52.532;13.336;2023-09-19T12:03:41;8.60;;;2.58;;
16593;SDS011;8410;52.532;13.336;2023-09-19T12:06:12;4.65;;;2.00;;
16593;SDS011;8410;52.532;13.336;2023-09-19T12:08:41;6.47;;;2.13;;
16593;SDS011;8410;52.532;13.336;2023-09-19T12:11:13;4.70;;;2.20;;
16593;SDS011;8410;52.532;13.336;2023-09-19T12:13:44;6.55;;;2.53;;
16593;SDS011;8410;52.532;13.336;2023-09-19T12:16:13;6.70;;;2.08;;
16593;SDS011;8410;52.532;13.336;2023-09-19T12:18:42;3.97;;;2.05;;
16593;SDS011;8410;52.532;13.336;2023-09-19T12:21:22;5.82;;;2.58;;
16593;SDS011;8410;52.532;13.336;2023-09-19T12:23:58;14.15;;;7.45;;
16593;SDS011;8410;52.532;13.336;2023-09-19T12:26:40;19.63;;;10.32;;
16593;SDS011;8410;52.532;13.336;2023-09-19T12:29:14;14.65;;;8.50;;
16593;SDS011;8410;52.532;13.336;2023-09-19T12:31:47;8.63;;;3.53;;
16593;SDS011;8410;52.532;13.336;2023-09-19T12:34:18;8.63;;;3.58;;
16593;SDS011;8410;52.532;13.336;2023-09-19T12:36:47;6.45;;;3.20;;
16593;SDS011;8410;52.532;13.336;2023-09-19T12:39:23;10.45;;;5.10;;
16593;SDS011;8410;52.532;13.336;2023-09-19T12:41:52;6.38;;;2.17;;
16593;SDS011;8410;52.532;13.336;2023-09-19T12:44:22;7.05;;;2.88;;
16593;SDS011;8410;52.532;13.336;2023-09-19T12:46:51;5.60;;;3.35;;
16593;SDS011;8410;52.532;13.336;2023-09-19T12:49:20;6.07;;;3.15;;
16593;SDS011;8410;52.532;13.336;2023-09-19T12:51:49;7.72;;;2.90;;
16593;SDS011;8410;52.532;13.336;2023-09-19T12:54:21;5.32;;;1.88;;
16593;SDS011;8410;52.532;13.336;2023-09-19T12:56:51;4.85;;;1.75;;
16593;SDS011;8410;52.532;13.336;2023-09-19T12:59:28;5.90;;;3.30;;
16593;SDS011;8410;52.532;13.336;2023-09-19T13:02:03;5.65;;;3.45;;
16593;SDS011;8410;52.532;13.336;2023-09-19T13:04:32;3.25;;;1.75;;
16593;SDS011;8410;52.532;13.336;2023-09-19T13:07:01;5.95;;;3.00;;
16593;SDS011;8410;52.532;13.336;2023-09-19T13:09:28;5.50;;;1.85;;
16593;SDS011;8410;52.532;13.336;2023-09-19T13:12:01;5.40;;;2.90;;
16593;SDS011;8410;52.532;13.336;2023-09-19T13:14:31;7.90;;;2.70;;
16593;SDS011;8410;52.532;13.336;2023-09-19T13:17:03;4.68;;;2.35;;
16593;SDS011;8410;52.532;13.336;2023-09-19T13:19:41;5.18;;;2.72;;
16593;SDS011;8410;52.532;13.336;2023-09-19T13:25:06;3.33;;;2.38;;
16593;SDS011;8410;52.532;13.336;2023-09-19T13:27:38;4.20;;;1.98;;
16593;SDS011;8410;52.532;13.336;2023-09-19T13:30:07;4.28;;;2.10;;
16593;SDS011;8410;52.532;13.336;2023-09-19T13:32:35;4.32;;;2.40;;
16593;SDS011;8410;52.532;13.336;2023-09-19T13:35:06;3.25;;;1.92;;
16593;SDS011;8410;52.532;13.336;2023-09-19T13:37:35;3.72;;;2.00;;
16593;SDS011;8410;52.532;13.336;2023-09-19T13:40:07;3.88;;;1.90;;
16593;SDS011;8410;52.532;13.336;2023-09-19T13:42:36;6.07;;;1.92;;
16593;SDS011;8410;52.532;13.336;2023-09-19T13:45:04;6.38;;;2.25;;
16593;SDS011;8410;52.532;13.336;2023-09-19T13:47:33;4.00;;;2.22;;
16593;SDS011;8410;52.532;13.336;2023-09-19T13:50:04;3.15;;;2.00;;
16593;SDS011;8410;52.532;13.336;2023-09-19T13:52:34;4.47;;;2.25;;
16593;SDS011;8410;52.532;13.336;2023-09-19T13:55:01;3.65;;;1.88;;
16593;SDS011;8410;52.532;13.336;2023-09-19T13:57:29;5.03;;;1.70;;
16593;SDS011;8410;52.532;13.336;2023-09-19T13:59:56;4.57;;;1.95;;
16593;SDS011;8410;52.532;13.336;2023-09-19T14:02:24;9.70;;;2.83;;
16593;SDS011;8410;52.532;13.336;2023-09-19T14:04:53;3.63;;;1.60;;
16593;SDS011;8410;52.532;13.336;2023-09-19T14:07:21;3.30;;;1.98;;
16593;SDS011;8410;52.532;13.336;2023-09-19T14:09:48;3.97;;;1.60;;
16593;SDS011;8410;52.532;13.336;2023-09-19T14:12:16;4.22;;;1.80;;
16593;SDS011;8410;52.532;13.336;2023-09-19T14:14:43;4.70;;;1.77;;
16593;SDS011;8410;52.532;13.336;2023-09-19T14:17:11;4.90;;;1.70;;
16593;SDS011;8410;52.532;13.336;2023-09-19T14:19:40;2.58;;;1.65;;
16593;SDS011;8410;52.532;13.336;2023-09-19T14:22:13;5.05;;;2.00;;
16593;SDS011;8410;52.532;13.336;2023-09-19T14:24:40;3.72;;;2.03;;
16593;SDS011;8410;52.532;13.336;2023-09-19T14:27:08;2.90;;;1.95;;
16593;SDS011;8410;52.532;13.336;2023-09-19T14:29:40;5.13;;;1.75;;
16593;SDS011;8410;52.532;13.336;2023-09-19T14:32:08;3.60;;;1.92;;
16593;SDS011;8410;52.532;13.336;2023-09-19T14:34:36;4.10;;;1.80;;
16593;SDS011;8410;52.532;13.336;2023-09-19T14:37:08;4.00;;;1.80;;
16593;SDS011;8410;52.532;13.336;2023-09-19T14:39:37;5.72;;;1.90;;
16593;SDS011;8410;52.532;13.336;2023-09-19T14:42:05;2.97;;;2.03;;
16593;SDS011;8410;52.532;13.336;2023-09-19T14:44:36;3.95;;;1.63;;
16593;SDS011;8410;52.532;13.336;2023-09-19T14:47:03;4.20;;;1.95;;
16593;SDS011;8410;52.532;13.336;2023-09-19T14:49:32;4.00;;;2.10;;
16593;SDS011;8410;52.532;13.336;2023-09-19T14:52:01;2.85;;;1.90;;
16593;SDS011;8410;52.532;13.336;2023-09-19T14:54:30;3.50;;;1.75;;
16593;SDS011;8410;52.532;13.336;2023-09-19T14:56:59;3.47;;;1.63;;
16593;SDS011;8410;52.532;13.336;2023-09-19T14:59:30;3.88;;;2.10;;
16593;SDS011;8410;52.532;13.336;2023-09-19T15:01:58;3.88;;;2.47;;
16593;SDS011;8410;52.532;13.336;2023-09-19T15:04:26;3.72;;;2.45;;
16593;SDS011;8410;52.532;13.336;2023-09-19T15:06:54;7.07;;;1.98;;
16593;SDS011;8410;52.532;13.336;2023-09-19T15:09:22;3.75;;;1.92;;
16593;SDS011;8410;52.532;13.336;2023-09-19T15:11:52;3.90;;;1.88;;
16593;SDS011;8410;52.532;13.336;2023-09-19T15:14:21;3.10;;;1.92;;
16593;SDS011;8410;52.532;13.336;2023-09-19T15:16:51;4.05;;;1.80;;
16593;SDS011;8410;52.532;13.336;2023-09-19T15:19:18;3.15;;;2.13;;
16593;SDS011;8410;52.532;13.336;2023-09-19T15:21:46;4.50;;;2.03;;
16593;SDS011;8410;52.532;13.336;2023-09-19T15:24:13;6.78;;;1.90;;
16593;SDS011;8410;52.532;13.336;2023-09-19T15:26:43;4.70;;;1.95;;